• Join FlightAware (Why Join?)
  • Login
  • US Flag 
10:49AM EDT


 

Airport Tracker/Info


-or-


 

Live Flight TrackerFlight Track Log ✈ N280TA ✈ 02-Nov-2013 ✈ KTBR - KFTY

Flight Track Log - Related Links

Times and Time Zones

All times are in EDT time to prevent confusion due to time zone crossing. See the N280TA flight status page for this flight to view local times or setup timezone preferences in your user account.

Time Position Orientation Groundspeed Altitude Reporting Facility
EDT Latitude Longitude Course Direction KTS MPH feet Rate Location/Type
05:36PM 32.5642 -81.8603 311° West 299 344 6,300  Level Atlanta Center
05:37PM 32.6028 -81.9133 311° West 264 304 9,100 2,700 Climbing Atlanta Center
05:38PM 32.6103 -81.9847 277° West 222 255 11,800 2,520 Climbing Atlanta Center
05:39PM 32.6053 -82.0614 266° West 222 255 14,200 1,860 Climbing Atlanta Center
05:40PM 32.6231 -82.1325 287° West 227 261 15,600 900 Climbing Atlanta Center
05:41PM 32.6742 -82.2003 312° West 244 281 16,000 120 Climbing Atlanta Center
05:42PM 32.7192 -82.2761 305° West 265 305 15,900  Descending Atlanta Center
05:43PM 32.7578 -82.3542 300° West 272 313 16,000  Climbing Atlanta Center
05:44PM 32.8047 -82.4275 307° West 278 320 15,900 -60 Descending Atlanta Center
05:45PM 32.8681 -82.4931 319° Northwest 283 326 15,900  Level Atlanta Center
05:46PM 32.9275 -82.5589 317° Northwest 283 326 15,900  Level Atlanta Center
05:47PM 32.9681 -82.6350 302° West 283 326 16,000  Climbing Atlanta Center
05:48PM 33.0022 -82.7161 297° West 277 319 16,000  Level Atlanta Center
05:49PM 33.0344 -82.8000 295° West 277 319 16,100  Climbing Atlanta Center
05:50PM 33.0667 -82.8861 294° West 277 319 16,000 -120 Descending Atlanta Center
05:51PM 33.0989 -82.9875 291° West 288 331 15,900  Descending Atlanta Center
05:52PM 33.1328 -83.0664 297° West 283 326 16,000  Climbing Atlanta Center
05:53PM 33.1689 -83.1503 297° West 283 326 15,900 -300 Descending Atlanta Center
05:54PM 33.2031 -83.2294 297° West 276 318 15,500 -660 Descending Atlanta Center
05:55PM 33.2328 -83.3161 292° West 276 318 14,600 -1,020 Descending Atlanta Center
05:56PM 33.2686 -83.3953 298° West 276 318 13,500 -1,020 Descending Atlanta Center
05:57PM 33.3067 -83.4747 300° West 276 318 12,600 -1,020 Descending Atlanta Center
05:58PM 33.3383 -83.5564 295° West 276 318 11,500 -840 Descending Atlanta Center
05:59PM 33.3719 -83.6333 298° West 276 318 11,000 -300 Descending Atlanta Center
06:00PM 33.4056 -83.7003 301° West 271 312 11,000 -300 Level Atlanta Center
06:01PM 33.4767 -83.7375 336° Northwest 258 297 10,500 -900 Descending Atlanta Center
06:02PM 33.5517 -83.7572 348° North 263 303 9,200 -1,200 Descending Atlanta Center
06:03PM 33.6228 -83.7819 344° North 269 310 8,100 -1,320 Descending Atlanta Center
06:04PM 33.6917 -83.8042 345° North 269 310 6,600 -1,500 Descending Atlanta Center
06:05PM 33.7628 -83.8289 344° North 258 297 5,200 -1,260 Descending Atlanta Center
06:06PM 33.8108 -83.8789 319° Northwest 229 264 4,100 -600 Descending Atlanta Center
06:07PM 33.8047 -83.9589 265° West 219 252 4,000 -60 Descending Atlanta Center
06:09PM 33.8167 -84.0833 277° West 195 224 4,000 -60 Level Atlanta TRACON
06:10PM 33.8167 -84.1500 270° West 197 227 3,900 -540 Descending Atlanta TRACON
06:11PM 33.8167 -84.2167 270° West 190 219 3,000 -480 Descending Atlanta TRACON
06:12PM 33.8167 -84.2667 270° West 187 215 3,000  Level Atlanta TRACON
06:13PM 33.8167 -84.3333 270° West 194 223 3,000  Level Atlanta TRACON
06:14PM 33.8000 -84.4000 253° West 171 197 3,000 -480 Level Atlanta TRACON
06:15PM 33.8000 -84.4500 270° West 137 158 2,100 -840 Descending Atlanta TRACON
06:16PM 33.7833 -84.4833 239° Southwest 115 132 1,500 -720 Descending Atlanta TRACON
06:18PM 33.7667 -84.5167 231° Southwest  Level FlightAware Approximate
06:25PM 33.7791 -84.5214 231° Southwest  Level Estimated